sensor_id;sensor_type;location;lat;lon;timestamp;pressure;altitude;pressure_sealevel;temperature;humidity
15604;BME280;7902;49.042;9.092;2023-07-13T00:01:30;99022.94;;;25.63;40.83
15604;BME280;7902;49.042;9.092;2023-07-13T00:03:56;99023.97;;;25.62;41.03
15604;BME280;7902;49.042;9.092;2023-07-13T00:06:23;99023.97;;;25.75;40.77
15604;BME280;7902;49.042;9.092;2023-07-13T00:08:49;99025.66;;;25.63;40.86
15604;BME280;7902;49.042;9.092;2023-07-13T00:11:16;99025.66;;;25.70;40.69
15604;BME280;7902;49.042;9.092;2023-07-13T00:13:43;99017.97;;;25.54;41.01
15604;BME280;7902;49.042;9.092;2023-07-13T00:16:10;99021.91;;;25.64;40.58
15604;BME280;7902;49.042;9.092;2023-07-13T00:18:37;99013.44;;;25.54;40.74
15604;BME280;7902;49.042;9.092;2023-07-13T00:21:04;99010.53;;;25.62;40.83
15604;BME280;7902;49.042;9.092;2023-07-13T00:23:37;99004.94;;;25.51;40.73
15604;BME280;7902;49.042;9.092;2023-07-13T00:26:05;99009.50;;;25.70;40.86
15604;BME280;7902;49.042;9.092;2023-07-13T00:28:32;99010.34;;;25.31;41.04
15604;BME280;7902;49.042;9.092;2023-07-13T00:30:58;99010.56;;;25.36;40.83
15604;BME280;7902;49.042;9.092;2023-07-13T00:33:24;99003.72;;;25.40;40.63
15604;BME280;7902;49.042;9.092;2023-07-13T00:35:50;98996.50;;;25.21;40.88
15604;BME280;7902;49.042;9.092;2023-07-13T00:38:16;99002.91;;;25.33;40.99
15604;BME280;7902;49.042;9.092;2023-07-13T00:40:42;98999.19;;;25.21;40.83
15604;BME280;7902;49.042;9.092;2023-07-13T00:43:20;98999.19;;;25.21;40.97
15604;BME280;7902;49.042;9.092;2023-07-13T00:48:21;98993.81;;;25.27;40.80
15604;BME280;7902;49.042;9.092;2023-07-13T00:50:52;99003.50;;;25.15;40.94
15604;BME280;7902;49.042;9.092;2023-07-13T00:53:19;98989.66;;;25.31;40.72
15604;BME280;7902;49.042;9.092;2023-07-13T00:55:48;98994.66;;;25.28;40.38
15604;BME280;7902;49.042;9.092;2023-07-13T00:58:15;99006.00;;;25.17;40.96
15604;BME280;7902;49.042;9.092;2023-07-13T01:00:41;99006.84;;;25.17;40.62
15604;BME280;7902;49.042;9.092;2023-07-13T01:03:08;99009.94;;;25.08;41.12
15604;BME280;7902;49.042;9.092;2023-07-13T01:05:35;99010.75;;;25.15;41.16
15604;BME280;7902;49.042;9.092;2023-07-13T01:08:02;99010.34;;;25.11;40.78
15604;BME280;7902;49.042;9.092;2023-07-13T01:10:31;99010.75;;;24.95;41.14
15604;BME280;7902;49.042;9.092;2023-07-13T01:13:05;99017.97;;;25.01;40.68
15604;BME280;7902;49.042;9.092;2023-07-13T01:18:00;99020.88;;;25.13;40.95
15604;BME280;7902;49.042;9.092;2023-07-13T01:20:26;99019.03;;;25.07;40.78
15604;BME280;7902;49.042;9.092;2023-07-13T01:22:52;99011.97;;;24.92;40.67
15604;BME280;7902;49.042;9.092;2023-07-13T01:25:20;99017.59;;;25.04;40.59
15604;BME280;7902;49.042;9.092;2023-07-13T01:27:46;99016.50;;;24.85;40.62
15604;BME280;7902;49.042;9.092;2023-07-13T01:30:12;99017.16;;;24.94;40.37
15604;BME280;7902;49.042;9.092;2023-07-13T01:32:39;99016.88;;;24.82;40.79
15604;BME280;7902;49.042;9.092;2023-07-13T01:35:07;99011.97;;;24.92;40.55
15604;BME280;7902;49.042;9.092;2023-07-13T01:37:33;99009.50;;;24.91;39.99
15604;BME280;7902;49.042;9.092;2023-07-13T01:40:03;99008.22;;;24.80;40.91
15604;BME280;7902;49.042;9.092;2023-07-13T01:42:30;99017.91;;;24.68;40.96
15604;BME280;7902;49.042;9.092;2023-07-13T01:44:56;99008.63;;;24.77;40.88
15604;BME280;7902;49.042;9.092;2023-07-13T01:47:22;99003.72;;;24.87;40.77
15604;BME280;7902;49.042;9.092;2023-07-13T01:49:49;99008.44;;;24.85;40.54
15604;BME280;7902;49.042;9.092;2023-07-13T01:52:17;99013.16;;;24.77;40.11
15604;BME280;7902;49.042;9.092;2023-07-13T01:54:43;99028.88;;;24.80;40.64
15604;BME280;7902;49.042;9.092;2023-07-13T01:57:09;99027.41;;;24.64;40.51
15604;BME280;7902;49.042;9.092;2023-07-13T01:59:35;99027.59;;;24.63;40.76
15604;BME280;7902;49.042;9.092;2023-07-13T02:02:01;99027.59;;;24.56;41.07
15604;BME280;7902;49.042;9.092;2023-07-13T02:04:27;99022.63;;;24.53;40.74
15604;BME280;7902;49.042;9.092;2023-07-13T02:06:53;99026.09;;;24.40;40.97
15604;BME280;7902;49.042;9.092;2023-07-13T02:09:21;99023.41;;;24.34;41.38
15604;BME280;7902;49.042;9.092;2023-07-13T02:11:47;99021.72;;;24.39;40.97
15604;BME280;7902;49.042;9.092;2023-07-13T02:14:14;99026.13;;;24.47;41.49
15604;BME280;7902;49.042;9.092;2023-07-13T02:16:41;99019.72;;;24.48;41.09
15604;BME280;7902;49.042;9.092;2023-07-13T02:19:07;99023.78;;;24.31;41.35
15604;BME280;7902;49.042;9.092;2023-07-13T02:21:33;99021.34;;;24.42;40.99
15604;BME280;7902;49.042;9.092;2023-07-13T02:23:59;99034.88;;;24.21;41.42
15604;BME280;7902;49.042;9.092;2023-07-13T02:26:26;99038.28;;;24.43;41.44
15604;BME280;7902;49.042;9.092;2023-07-13T02:28:52;99036.72;;;24.21;41.53
15604;BME280;7902;49.042;9.092;2023-07-13T02:31:18;99035.41;;;24.51;41.36
15604;BME280;7902;49.042;9.092;2023-07-13T02:33:44;99034.94;;;24.34;41.70
15604;BME280;7902;49.042;9.092;2023-07-13T02:36:11;99035.38;;;24.38;41.26
15604;BME280;7902;49.042;9.092;2023-07-13T02:38:37;99031.25;;;24.42;41.39
15604;BME280;7902;49.042;9.092;2023-07-13T02:41:04;99024.50;;;24.66;41.01
15604;BME280;7902;49.042;9.092;2023-07-13T02:43:31;99029.38;;;24.36;40.88
15604;BME280;7902;49.042;9.092;2023-07-13T02:45:59;99020.06;;;24.32;41.57
15604;BME280;7902;49.042;9.092;2023-07-13T02:48:30;99026.22;;;24.26;41.56
15604;BME280;7902;49.042;9.092;2023-07-13T02:50:55;99033.22;;;24.20;41.68
15604;BME280;7902;49.042;9.092;2023-07-13T02:53:21;99031.09;;;24.16;41.87
15604;BME280;7902;49.042;9.092;2023-07-13T02:55:47;99039.38;;;24.14;42.15
15604;BME280;7902;49.042;9.092;2023-07-13T02:58:13;99040.22;;;24.15;42.25
15604;BME280;7902;49.042;9.092;2023-07-13T03:00:43;99047.50;;;23.93;42.63
15604;BME280;7902;49.042;9.092;2023-07-13T03:03:09;99038.47;;;24.00;42.28
15604;BME280;7902;49.042;9.092;2023-07-13T03:05:37;99045.88;;;23.98;42.63
15604;BME280;7902;49.042;9.092;2023-07-13T03:08:03;99044.94;;;23.78;42.88
15604;BME280;7902;49.042;9.092;2023-07-13T03:10:29;99051.25;;;23.98;42.56
15604;BME280;7902;49.042;9.092;2023-07-13T03:12:55;99054.28;;;23.89;43.09
15604;BME280;7902;49.042;9.092;2023-07-13T03:15:21;99051.78;;;23.81;42.68
15604;BME280;7902;49.042;9.092;2023-07-13T03:17:47;99054.72;;;23.92;42.65
15604;BME280;7902;49.042;9.092;2023-07-13T03:20:13;99053.03;;;23.85;42.78
15604;BME280;7902;49.042;9.092;2023-07-13T03:22:39;99053.22;;;23.83;42.65
15604;BME280;7902;49.042;9.092;2023-07-13T03:25:05;99054.47;;;23.87;42.59
15604;BME280;7902;49.042;9.092;2023-07-13T03:27:31;99063.91;;;23.77;42.63
15604;BME280;7902;49.042;9.092;2023-07-13T03:29:57;99064.63;;;23.92;42.61
15604;BME280;7902;49.042;9.092;2023-07-13T03:32:23;99062.56;;;23.94;42.36
15604;BME280;7902;49.042;9.092;2023-07-13T03:34:49;99070.94;;;23.78;42.83
15604;BME280;7902;49.042;9.092;2023-07-13T03:37:15;99062.84;;;23.71;42.59
15604;BME280;7902;49.042;9.092;2023-07-13T03:39:41;99062.78;;;23.65;42.47
15604;BME280;7902;49.042;9.092;2023-07-13T03:42:07;99071.88;;;23.64;43.14
15604;BME280;7902;49.042;9.092;2023-07-13T03:44:33;99076.53;;;23.55;42.53
15604;BME280;7902;49.042;9.092;2023-07-13T03:46:59;99079.22;;;23.55;42.66
15604;BME280;7902;49.042;9.092;2023-07-13T03:49:25;99077.44;;;23.69;42.38
15604;BME280;7902;49.042;9.092;2023-07-13T03:51:51;99082.00;;;23.68;42.40
15604;BME280;7902;49.042;9.092;2023-07-13T03:54:17;99092.75;;;23.68;42.54
15604;BME280;7902;49.042;9.092;2023-07-13T03:56:43;99086.31;;;23.69;42.50
15604;BME280;7902;49.042;9.092;2023-07-13T03:59:08;99093.69;;;23.60;42.70
15604;BME280;7902;49.042;9.092;2023-07-13T04:01:34;99098.47;;;23.65;42.62
15604;BME280;7902;49.042;9.092;2023-07-13T04:04:00;99104.81;;;23.57;42.76
15604;BME280;7902;49.042;9.092;2023-07-13T04:06:29;99101.31;;;23.57;42.49
15604;BME280;7902;49.042;9.092;2023-07-13T04:08:57;99107.28;;;23.59;42.67
15604;BME280;7902;49.042;9.092;2023-07-13T04:11:26;99112.09;;;23.64;42.96
15604;BME280;7902;49.042;9.092;2023-07-13T04:13:53;99112.13;;;23.70;42.26
15604;BME280;7902;49.042;9.092;2023-07-13T04:16:19;99122.09;;;23.55;42.97
15604;BME280;7902;49.042;9.092;2023-07-13T04:18:46;99116.81;;;23.61;42.62
15604;BME280;7902;49.042;9.092;2023-07-13T04:21:13;99125.81;;;23.54;42.75
15604;BME280;7902;49.042;9.092;2023-07-13T04:23:39;99129.31;;;23.54;42.90
15604;BME280;7902;49.042;9.092;2023-07-13T04:26:06;99129.88;;;23.50;42.72
15604;BME280;7902;49.042;9.092;2023-07-13T04:28:32;99121.34;;;23.61;43.00
15604;BME280;7902;49.042;9.092;2023-07-13T04:30:58;99126.69;;;23.61;43.16
15604;BME280;7902;49.042;9.092;2023-07-13T04:33:26;99128.88;;;23.51;43.03
15604;BME280;7902;49.042;9.092;2023-07-13T04:35:54;99126.13;;;23.66;42.82
15604;BME280;7902;49.042;9.092;2023-07-13T04:38:24;99125.94;;;23.67;42.80
15604;BME280;7902;49.042;9.092;2023-07-13T04:40:51;99129.19;;;23.63;42.60
15604;BME280;7902;49.042;9.092;2023-07-13T04:43:18;99119.31;;;23.63;42.96
15604;BME280;7902;49.042;9.092;2023-07-13T04:45:44;99124.41;;;23.58;43.10
15604;BME280;7902;49.042;9.092;2023-07-13T04:48:10;99123.38;;;23.59;42.84
15604;BME280;7902;49.042;9.092;2023-07-13T04:50:36;99121.50;;;23.59;42.89
15604;BME280;7902;49.042;9.092;2023-07-13T04:53:03;99129.78;;;23.58;42.81
15604;BME280;7902;49.042;9.092;2023-07-13T04:55:30;99125.28;;;23.65;42.79
15604;BME280;7902;49.042;9.092;2023-07-13T04:57:56;99132.63;;;23.56;42.64
15604;BME280;7902;49.042;9.092;2023-07-13T05:00:24;99128.94;;;23.57;42.91
15604;BME280;7902;49.042;9.092;2023-07-13T05:02:51;99135.25;;;23.50;43.32
15604;BME280;7902;49.042;9.092;2023-07-13T05:05:17;99124.00;;;23.61;43.03
15604;BME280;7902;49.042;9.092;2023-07-13T05:07:43;99130.88;;;23.70;43.60
15604;BME280;7902;49.042;9.092;2023-07-13T05:10:09;99127.19;;;23.71;43.62
15604;BME280;7902;49.042;9.092;2023-07-13T05:12:35;99124.75;;;23.76;43.89
15604;BME280;7902;49.042;9.092;2023-07-13T05:15:02;99133.56;;;23.70;43.81
15604;BME280;7902;49.042;9.092;2023-07-13T05:17:28;99126.53;;;23.69;43.93
15604;BME280;7902;49.042;9.092;2023-07-13T05:19:54;99136.66;;;23.67;44.17
15604;BME280;7902;49.042;9.092;2023-07-13T05:22:20;99135.22;;;23.71;44.39
15604;BME280;7902;49.042;9.092;2023-07-13T05:24:46;99144.72;;;23.74;44.09
15604;BME280;7902;49.042;9.092;2023-07-13T05:27:12;99141.09;;;23.81;44.58
15604;BME280;7902;49.042;9.092;2023-07-13T05:29:38;99139.69;;;23.85;44.45
15604;BME280;7902;49.042;9.092;2023-07-13T05:32:04;99135.72;;;23.81;44.61
15604;BME280;7902;49.042;9.092;2023-07-13T05:34:30;99142.34;;;23.85;44.44
15604;BME280;7902;49.042;9.092;2023-07-13T05:36:56;99140.69;;;23.84;45.04
15604;BME280;7902;49.042;9.092;2023-07-13T05:39:22;99146.81;;;23.78;45.07
15604;BME280;7902;49.042;9.092;2023-07-13T05:41:48;99156.34;;;23.81;44.94
15604;BME280;7902;49.042;9.092;2023-07-13T05:44:14;99157.19;;;23.81;44.56
15604;BME280;7902;49.042;9.092;2023-07-13T05:46:40;99155.13;;;23.83;44.41
15604;BME280;7902;49.042;9.092;2023-07-13T05:49:06;99150.66;;;23.90;44.60
15604;BME280;7902;49.042;9.092;2023-07-13T05:51:31;99162.41;;;23.89;44.68
15604;BME280;7902;49.042;9.092;2023-07-13T05:53:57;99160.16;;;23.93;44.61
15604;BME280;7902;49.042;9.092;2023-07-13T05:56:23;99163.03;;;23.91;44.85
15604;BME280;7902;49.042;9.092;2023-07-13T05:58:50;99168.00;;;23.94;45.15
15604;BME280;7902;49.042;9.092;2023-07-13T06:01:16;99172.09;;;23.90;45.16
15604;BME280;7902;49.042;9.092;2023-07-13T06:03:43;99169.59;;;23.89;45.22
15604;BME280;7902;49.042;9.092;2023-07-13T06:06:10;99165.72;;;23.91;44.82
15604;BME280;7902;49.042;9.092;2023-07-13T06:08:36;99167.56;;;23.91;45.34
15604;BME280;7902;49.042;9.092;2023-07-13T06:13:33;99178.50;;;23.89;45.51
15604;BME280;7902;49.042;9.092;2023-07-13T06:16:00;99173.78;;;23.91;45.49
15604;BME280;7902;49.042;9.092;2023-07-13T06:18:26;99179.13;;;23.91;45.53
15604;BME280;7902;49.042;9.092;2023-07-13T06:20:52;99179.50;;;23.88;45.47
15604;BME280;7902;49.042;9.092;2023-07-13T06:23:17;99181.00;;;23.97;45.06
15604;BME280;7902;49.042;9.092;2023-07-13T06:25:43;99177.13;;;24.00;45.15
15604;BME280;7902;49.042;9.092;2023-07-13T06:28:09;99188.28;;;24.03;45.25
15604;BME280;7902;49.042;9.092;2023-07-13T06:30:38;99186.88;;;24.08;45.12
15604;BME280;7902;49.042;9.092;2023-07-13T06:33:04;99194.50;;;24.04;44.72
15604;BME280;7902;49.042;9.092;2023-07-13T06:35:30;99196.00;;;24.13;44.27
15604;BME280;7902;49.042;9.092;2023-07-13T06:37:55;99192.31;;;24.14;43.82
15604;BME280;7902;49.042;9.092;2023-07-13T06:40:21;99190.06;;;24.18;43.28
15604;BME280;7902;49.042;9.092;2023-07-13T06:42:47;99204.22;;;24.33;42.84
15604;BME280;7902;49.042;9.092;2023-07-13T06:45:13;99205.88;;;24.34;42.20
15604;BME280;7902;49.042;9.092;2023-07-13T06:47:39;99200.91;;;24.31;42.18
15604;BME280;7902;49.042;9.092;2023-07-13T06:50:05;99201.78;;;24.38;42.12
15604;BME280;7902;49.042;9.092;2023-07-13T06:52:31;99203.28;;;24.47;41.79
15604;BME280;7902;49.042;9.092;2023-07-13T06:54:57;99200.84;;;24.52;41.64
15604;BME280;7902;49.042;9.092;2023-07-13T06:57:23;99206.03;;;24.60;41.23
15604;BME280;7902;49.042;9.092;2023-07-13T06:59:49;99208.47;;;24.55;41.37
15604;BME280;7902;49.042;9.092;2023-07-13T07:02:15;99202.34;;;24.61;41.13
15604;BME280;7902;49.042;9.092;2023-07-13T07:04:41;99208.19;;;24.78;41.02
15604;BME280;7902;49.042;9.092;2023-07-13T07:07:07;99210.38;;;24.61;40.64
15604;BME280;7902;49.042;9.092;2023-07-13T07:09:32;99214.44;;;24.85;40.78
15604;BME280;7902;49.042;9.092;2023-07-13T07:11:58;99212.72;;;24.77;40.91
15604;BME280;7902;49.042;9.092;2023-07-13T07:14:24;99222.25;;;24.80;40.48
15604;BME280;7902;49.042;9.092;2023-07-13T07:16:50;99222.50;;;24.85;40.27
15604;BME280;7902;49.042;9.092;2023-07-13T07:19:16;99226.78;;;24.79;40.37
15604;BME280;7902;49.042;9.092;2023-07-13T07:21:42;99228.06;;;24.83;40.18
15604;BME280;7902;49.042;9.092;2023-07-13T07:24:08;99231.34;;;24.79;40.10
15604;BME280;7902;49.042;9.092;2023-07-13T07:26:34;99229.25;;;24.74;39.42
15604;BME280;7902;49.042;9.092;2023-07-13T07:29:00;99232.25;;;24.92;40.13
15604;BME280;7902;49.042;9.092;2023-07-13T07:31:26;99237.88;;;24.98;40.08
15604;BME280;7902;49.042;9.092;2023-07-13T07:33:52;99237.53;;;25.14;39.73
15604;BME280;7902;49.042;9.092;2023-07-13T07:36:18;99238.50;;;25.06;39.83
15604;BME280;7902;49.042;9.092;2023-07-13T07:38:43;99230.31;;;25.21;39.35
15604;BME280;7902;49.042;9.092;2023-07-13T07:41:10;99229.09;;;25.23;39.69
15604;BME280;7902;49.042;9.092;2023-07-13T07:43:36;99240.91;;;25.35;39.28
15604;BME280;7902;49.042;9.092;2023-07-13T07:46:03;99230.97;;;25.36;39.65
15604;BME280;7902;49.042;9.092;2023-07-13T07:48:29;99240.22;;;25.20;39.09
15604;BME280;7902;49.042;9.092;2023-07-13T07:50:55;99232.03;;;25.42;38.98
15604;BME280;7902;49.042;9.092;2023-07-13T07:53:20;99236.19;;;25.51;38.70
15604;BME280;7902;49.042;9.092;2023-07-13T07:55:46;99245.03;;;25.38;38.59
15604;BME280;7902;49.042;9.092;2023-07-13T07:58:13;99240.06;;;25.35;38.17
15604;BME280;7902;49.042;9.092;2023-07-13T08:00:39;99236.34;;;25.43;38.18
15604;BME280;7902;49.042;9.092;2023-07-13T08:03:06;99238.66;;;25.46;38.23
15604;BME280;7902;49.042;9.092;2023-07-13T08:05:35;99241.53;;;25.44;38.68
15604;BME280;7902;49.042;9.092;2023-07-13T08:08:00;99242.97;;;25.40;38.53
15604;BME280;7902;49.042;9.092;2023-07-13T08:10:26;99243.16;;;25.32;38.33
15604;BME280;7902;49.042;9.092;2023-07-13T08:12:52;99240.72;;;25.50;38.38
15604;BME280;7902;49.042;9.092;2023-07-13T08:15:19;99237.69;;;25.60;38.16
15604;BME280;7902;49.042;9.092;2023-07-13T08:17:47;99231.66;;;25.51;38.44
15604;BME280;7902;49.042;9.092;2023-07-13T08:20:14;99247.56;;;25.53;38.47
15604;BME280;7902;49.042;9.092;2023-07-13T08:22:40;99236.25;;;25.64;38.36
15604;BME280;7902;49.042;9.092;2023-07-13T08:25:06;99239.56;;;25.66;37.93
15604;BME280;7902;49.042;9.092;2023-07-13T08:27:32;99244.50;;;25.62;38.77
15604;BME280;7902;49.042;9.092;2023-07-13T08:29:58;99239.16;;;25.69;38.09
15604;BME280;7902;49.042;9.092;2023-07-13T08:32:24;99238.56;;;25.80;37.72
15604;BME280;7902;49.042;9.092;2023-07-13T08:34:50;99241.00;;;25.68;37.29
15604;BME280;7902;49.042;9.092;2023-07-13T08:37:17;99236.47;;;25.69;37.74
15604;BME280;7902;49.042;9.092;2023-07-13T08:39:43;99233.56;;;25.77;37.34
15604;BME280;7902;49.042;9.092;2023-07-13T08:42:21;99238.09;;;25.63;37.51
15604;BME280;7902;49.042;9.092;2023-07-13T08:47:33;99235.88;;;25.80;37.28
15604;BME280;7902;49.042;9.092;2023-07-13T08:50:02;99237.09;;;25.77;36.92
15604;BME280;7902;49.042;9.092;2023-07-13T08:52:33;99240.41;;;25.93;37.24
15604;BME280;7902;49.042;9.092;2023-07-13T08:55:21;99244.97;;;25.99;37.31
15604;BME280;7902;49.042;9.092;2023-07-13T08:57:56;99249.91;;;25.95;37.18
15604;BME280;7902;49.042;9.092;2023-07-13T09:00:38;99242.06;;;25.94;36.90
15604;BME280;7902;49.042;9.092;2023-07-13T09:03:16;99242.06;;;26.00;36.62
15604;BME280;7902;49.042;9.092;2023-07-13T09:05:48;99252.00;;;26.06;37.42
15604;BME280;7902;49.042;9.092;2023-07-13T09:11:02;99240.00;;;26.09;37.42
15604;BME280;7902;49.042;9.092;2023-07-13T09:16:20;99239.81;;;26.24;36.83
15604;BME280;7902;49.042;9.092;2023-07-13T09:18:50;99254.09;;;26.17;36.83
15604;BME280;7902;49.042;9.092;2023-07-13T09:21:22;99245.44;;;26.22;36.48
15604;BME280;7902;49.042;9.092;2023-07-13T09:23:53;99234.63;;;26.35;36.41
15604;BME280;7902;49.042;9.092;2023-07-13T09:26:22;99249.97;;;26.22;36.64
15604;BME280;7902;49.042;9.092;2023-07-13T09:29:00;99247.47;;;26.33;36.10
15604;BME280;7902;49.042;9.092;2023-07-13T09:31:43;99240.25;;;26.27;36.38
15604;BME280;7902;49.042;9.092;2023-07-13T09:34:12;99238.16;;;26.29;36.54
15604;BME280;7902;49.042;9.092;2023-07-13T09:36:38;99245.22;;;26.37;36.44
15604;BME280;7902;49.042;9.092;2023-07-13T09:41:54;99241.69;;;26.36;36.83
15604;BME280;7902;49.042;9.092;2023-07-13T09:44:34;99242.91;;;26.40;37.17
15604;BME280;7902;49.042;9.092;2023-07-13T09:47:01;99237.69;;;26.52;37.23
15604;BME280;7902;49.042;9.092;2023-07-13T09:49:35;99225.91;;;26.59;36.71
15604;BME280;7902;49.042;9.092;2023-07-13T09:52:04;99224.66;;;26.42;36.93
15604;BME280;7902;49.042;9.092;2023-07-13T09:54:34;99232.34;;;26.45;36.81
15604;BME280;7902;49.042;9.092;2023-07-13T09:57:02;99231.44;;;26.71;37.14
15604;BME280;7902;49.042;9.092;2023-07-13T09:59:32;99222.53;;;26.77;37.18
15604;BME280;7902;49.042;9.092;2023-07-13T10:01:58;99226.69;;;26.73;36.62
15604;BME280;7902;49.042;9.092;2023-07-13T10:04:30;99227.91;;;26.77;36.50
15604;BME280;7902;49.042;9.092;2023-07-13T10:07:05;99227.28;;;26.75;35.86
15604;BME280;7902;49.042;9.092;2023-07-13T10:09:32;99229.97;;;26.75;35.78
15604;BME280;7902;49.042;9.092;2023-07-13T10:11:58;99232.91;;;26.74;35.69
15604;BME280;7902;49.042;9.092;2023-07-13T10:14:24;99225.03;;;26.65;36.88
15604;BME280;7902;49.042;9.092;2023-07-13T10:17:01;99233.09;;;26.79;35.36
15604;BME280;7902;49.042;9.092;2023-07-13T10:19:31;99232.50;;;26.63;36.12
15604;BME280;7902;49.042;9.092;2023-07-13T10:24:55;99229.13;;;26.81;36.05
15604;BME280;7902;49.042;9.092;2023-07-13T10:27:35;99228.31;;;26.81;36.41
15604;BME280;7902;49.042;9.092;2023-07-13T10:32:35;99242.22;;;26.78;34.91
15604;BME280;7902;49.042;9.092;2023-07-13T10:35:01;99234.97;;;26.78;35.97
15604;BME280;7902;49.042;9.092;2023-07-13T10:37:41;99232.88;;;26.80;35.01
15604;BME280;7902;49.042;9.092;2023-07-13T10:40:19;99236.81;;;26.91;34.54
15604;BME280;7902;49.042;9.092;2023-07-13T10:42:50;99236.63;;;26.86;35.93
15604;BME280;7902;49.042;9.092;2023-07-13T10:45:20;99234.13;;;26.91;34.99
15604;BME280;7902;49.042;9.092;2023-07-13T10:47:48;99232.22;;;26.85;35.22
15604;BME280;7902;49.042;9.092;2023-07-13T10:50:27;99236.16;;;27.02;35.36
15604;BME280;7902;49.042;9.092;2023-07-13T10:52:55;99231.38;;;27.04;35.63
15604;BME280;7902;49.042;9.092;2023-07-13T10:55:40;99234.63;;;27.13;35.79
15604;BME280;7902;49.042;9.092;2023-07-13T10:58:28;99236.22;;;27.27;35.41
15604;BME280;7902;49.042;9.092;2023-07-13T11:03:27;99231.91;;;27.19;34.59
15604;BME280;7902;49.042;9.092;2023-07-13T11:06:28;99223.22;;;27.17;35.85
15604;BME280;7902;49.042;9.092;2023-07-13T11:08:57;99227.53;;;27.25;35.48
15604;BME280;7902;49.042;9.092;2023-07-13T11:21:22;99218.38;;;27.32;34.37
15604;BME280;7902;49.042;9.092;2023-07-13T11:31:40;99211.31;;;27.31;32.53
15604;BME280;7902;49.042;9.092;2023-07-13T11:34:14;99208.22;;;27.34;32.56
15604;BME280;7902;49.042;9.092;2023-07-13T11:36:45;99206.06;;;27.43;31.89
15604;BME280;7902;49.042;9.092;2023-07-13T11:39:13;99185.41;;;27.68;31.80
15604;BME280;7902;49.042;9.092;2023-07-13T11:41:50;99201.09;;;27.78;31.09
15604;BME280;7902;49.042;9.092;2023-07-13T11:44:19;99198.38;;;27.53;31.62
15604;BME280;7902;49.042;9.092;2023-07-13T11:46:51;99202.56;;;27.74;31.90
15604;BME280;7902;49.042;9.092;2023-07-13T11:49:23;99191.72;;;27.80;32.41
15604;BME280;7902;49.042;9.092;2023-07-13T11:51:49;99198.06;;;27.92;31.79
15604;BME280;7902;49.042;9.092;2023-07-13T11:54:33;99191.28;;;27.83;31.66
15604;BME280;7902;49.042;9.092;2023-07-13T11:59:49;99184.28;;;28.25;29.77
15604;BME280;7902;49.042;9.092;2023-07-13T12:02:32;99201.59;;;28.43;28.68
15604;BME280;7902;49.042;9.092;2023-07-13T12:05:00;99202.28;;;28.13;29.46
15604;BME280;7902;49.042;9.092;2023-07-13T12:07:30;99186.00;;;27.95;29.85
15604;BME280;7902;49.042;9.092;2023-07-13T12:10:17;99183.31;;;28.20;29.29
15604;BME280;7902;49.042;9.092;2023-07-13T12:12:58;99193.78;;;28.10;28.97
15604;BME280;7902;49.042;9.092;2023-07-13T12:15:39;99196.06;;;28.31;29.11
15604;BME280;7902;49.042;9.092;2023-07-13T12:18:18;99193.31;;;28.38;29.03
15604;BME280;7902;49.042;9.092;2023-07-13T12:20:46;99193.31;;;28.38;29.63
15604;BME280;7902;49.042;9.092;2023-07-13T12:23:23;99198.94;;;28.54;29.47
15604;BME280;7902;49.042;9.092;2023-07-13T12:25:53;99188.16;;;28.72;29.43
15604;BME280;7902;49.042;9.092;2023-07-13T12:28:21;99192.81;;;29.02;29.04
15604;BME280;7902;49.042;9.092;2023-07-13T12:30:48;99183.47;;;28.86;29.31
15604;BME280;7902;49.042;9.092;2023-07-13T12:33:16;99188.84;;;29.04;28.59
15604;BME280;7902;49.042;9.092;2023-07-13T12:35:49;99185.09;;;28.87;28.35
15604;BME280;7902;49.042;9.092;2023-07-13T12:38:18;99204.47;;;28.84;28.00
15604;BME280;7902;49.042;9.092;2023-07-13T12:40:49;99187.91;;;29.10;29.06
15604;BME280;7902;49.042;9.092;2023-07-13T12:43:17;99200.84;;;29.08;28.61
15604;BME280;7902;49.042;9.092;2023-07-13T12:48:26;99194.81;;;29.06;28.76
15604;BME280;7902;49.042;9.092;2023-07-13T12:50:54;99199.63;;;29.22;29.19
15604;BME280;7902;49.042;9.092;2023-07-13T12:53:22;99192.13;;;29.06;28.30
15604;BME280;7902;49.042;9.092;2023-07-13T12:55:53;99187.28;;;29.27;28.77
15604;BME280;7902;49.042;9.092;2023-07-13T12:58:38;99186.81;;;29.30;28.38
15604;BME280;7902;49.042;9.092;2023-07-13T13:01:05;99192.19;;;29.18;28.33
15604;BME280;7902;49.042;9.092;2023-07-13T13:03:36;99201.00;;;29.43;28.35
15604;BME280;7902;49.042;9.092;2023-07-13T13:06:05;99201.06;;;29.55;28.13
15604;BME280;7902;49.042;9.092;2023-07-13T13:08:33;99203.97;;;29.23;28.36
15604;BME280;7902;49.042;9.092;2023-07-13T13:11:01;99197.28;;;29.56;28.45
15604;BME280;7902;49.042;9.092;2023-07-13T13:13:27;99190.19;;;29.85;28.64
15604;BME280;7902;49.042;9.092;2023-07-13T13:15:53;99195.47;;;29.80;28.34
15604;BME280;7902;49.042;9.092;2023-07-13T13:18:21;99185.28;;;29.52;28.71
15604;BME280;7902;49.042;9.092;2023-07-13T13:20:49;99199.94;;;29.44;28.55
15604;BME280;7902;49.042;9.092;2023-07-13T13:23:17;99191.66;;;29.69;28.76
15604;BME280;7902;49.042;9.092;2023-07-13T13:25:46;99185.91;;;29.65;28.59
15604;BME280;7902;49.042;9.092;2023-07-13T13:28:17;99192.50;;;29.70;28.52
15604;BME280;7902;49.042;9.092;2023-07-13T13:30:44;99191.53;;;29.94;28.78
15604;BME280;7902;49.042;9.092;2023-07-13T13:33:13;99193.13;;;29.83;28.50
15604;BME280;7902;49.042;9.092;2023-07-13T13:35:40;99192.97;;;29.78;28.63
15604;BME280;7902;49.042;9.092;2023-07-13T13:38:15;99190.38;;;29.72;28.51
15604;BME280;7902;49.042;9.092;2023-07-13T13:40:43;99198.69;;;30.00;28.46
15604;BME280;7902;49.042;9.092;2023-07-13T13:43:14;99194.69;;;30.02;28.29
15604;BME280;7902;49.042;9.092;2023-07-13T13:45:42;99192.94;;;30.20;27.67
15604;BME280;7902;49.042;9.092;2023-07-13T13:48:16;99191.53;;;29.64;28.60
15604;BME280;7902;49.042;9.092;2023-07-13T13:50:43;99194.94;;;29.59;28.69
15604;BME280;7902;49.042;9.092;2023-07-13T13:53:11;99185.56;;;29.85;28.41
15604;BME280;7902;49.042;9.092;2023-07-13T13:55:38;99197.41;;;30.02;27.92
15604;BME280;7902;49.042;9.092;2023-07-13T13:58:04;99188.09;;;30.10;28.39
15604;BME280;7902;49.042;9.092;2023-07-13T14:00:30;99194.09;;;30.24;27.84
15604;BME280;7902;49.042;9.092;2023-07-13T14:02:56;99195.75;;;30.01;27.74
15604;BME280;7902;49.042;9.092;2023-07-13T14:05:25;99186.34;;;30.16;27.24